x

Southeast Hawaii - 205 Nm Southeast Of Hilo, Hi (51004) Weather Station

3:50am - Wed 16th Apr 2014 All times are HST. -10 hours from GMT.

  • Wind
    16mph, 20mph gusts
  • Sea Temp 77°f
  • Air Temp 77°f
  • Sea Pressure 1014.3mb
  • Southeast Hawaii - 205 Nm Southeast Of Hilo, Hi
  • Southeast Hawaii - 205 Nm Southeast Of Hilo, Hi

More Historic Weather Station data

Upgrade to MSW Pro to gain access to the past 30 days of data for over 8000 Wavebouys and Weather Stations around the globe.

Join Pro

Comparision Forecast

View Surf forecast
   
Wed 04/16 3:50am  -   -   -  16 20 mph 1014.3mb 77f 77f
2:50am  -   -   -  18 22 mph 1014.3mb 77f 77f
1:50am 7ft 8s 6s 18 22 mph 1014.6mb 77f 77f
12:50am  -   -   -  18 22 mph 1015.2mb 77f 75f
Tue 04/15 11:50pm 7ft 8s 6s 20 25 mph 1015.7mb 77f 76f
9:50pm 7.5ft 8s 6s 20 25 mph 1015.9mb 77f 77f
8:50pm 8ft 10s 6s 20 25 mph 1014.9mb 77f 77f
7:50pm  -   -   -  20 25 mph 1014.1mb 77f 76f
6:50pm 7ft 8s 6s 18 25 mph 1013.4mb 77f 76f
5:50pm 8ft 8s 7s 20 25 mph 1012.9mb 77f 76f
4:50pm  -   -   -  20
mph
- - 76f
3:50pm 8ft 8s 7s 18 20 mph 1012.5mb 77f 76f
2:50pm  -   -   -  18 22 mph 1013.1mb 77f 75f
1:50pm  -   -   -  18 22 mph 1013.7mb 77f 76f
12:50pm 8ft 8s 6s 16 22 mph 1014.6mb 77f 74f
11:50am  -   -   -  18 25 mph 1015.3mb 77f 76f
10:50am 8.5ft 9s 6s 18 22 mph 1015.8mb 77f 77f
9:50am 8ft 8s 6s 18 22 mph 1015.9mb 77f 76f
8:50am 9ft 8s 7s 20 25 mph 1015.9mb 77f 76f
7:50am 9.5ft 8s 7s 20 22 mph 1015.5mb 77f 76f
6:50am  -   -   -  18 25 mph 1015.1mb 77f 75f
5:50am  -   -   -  22
mph
- - 75f
4:50am 9ft 9s 7s 22 27 mph 1014.1mb 77f 76f
3:50am  -   -   -  22 27 mph 1014.2mb 77f 75f
2:50am 9.5ft 9s 7s 18 22 mph 1014.8mb 77f 74f
1:50am 9ft 8s 6s 22 27 mph 1015.1mb 77f 76f
12:50am  -   -   -  22 27 mph 1015.6mb 77f 76f
Mon 04/14 11:50pm 9ft 8s 7s 25 29 mph 1016.1mb 77f 76f
10:50pm  -   -   -  22 27 mph 1016.4mb 77f 76f
9:50pm  -   -   -  25 31 mph 1016.1mb 77f 77f
8:50pm 10.5ft 8s 7s 25 29 mph 1015.4mb 77f 77f
7:50pm 9.5ft 9s 7s 25 31 mph 1014.9mb 77f 76f
6:50pm 10ft 9s 7s 27 31 mph 1014.2mb 77f 76f
5:50pm 10.5ft 8s 7s 27 31 mph 1014.2mb 77f 77f
4:50pm 10.5ft 8s 7s 25 29 mph 1013.9mb 77f 77f
3:50pm 9.5ft 9s 7s 25 29 mph 1014.2mb 77f 77f
2:50pm  -   -   -  25 31 mph 1014.2mb 77f 77f
1:50pm 10ft 9s 7s 25 31 mph 1015mb 77f 77f
12:50pm  -   -   -  27 31 mph 1015.8mb 77f 77f
11:50am 11ft 9s 7s 25 29 mph 1016.6mb 77f 77f
10:50am 9ft 9s 7s 25 27 mph 1016.9mb 77f 77f
9:50am 9.5ft 8s 7s 25 29 mph 1017.4mb 77f 77f
8:50am  -   -   -  25 29 mph 1017.3mb 77f 77f
7:50am  -   -   -  25 29 mph 1016.6mb 77f 76f
6:50am 11.5ft 8s 7s 27 34 mph 1015.9mb 77f 76f
5:50am 11ft 9s 7s 27 34 mph 1015.5mb 77f 76f
4:50am 12ft 9s 7s 25 31 mph 1015.1mb 77f 76f
3:50am 11ft 8s 7s 27 31 mph 1014.7mb 77f 76f
2:50am  -   -   -  27
mph
- - -
1:50am 10ft 8s 7s 27 34 mph 1015.5mb 77f 76f
12:50am  -   -   -  25
mph
1016.2mb - 76f
Sun 04/13 11:50pm 10.5ft 8s 7s 27 31 mph 1016.5mb 77f 76f
10:50pm  -   -   -  27 34 mph 1016.7mb 77f 77f
9:50pm 9.5ft 8s 6s 29 36 mph 1016.5mb 77f 77f
8:50pm 9.5ft 8s 6s 25 31 mph 1016mb 77f 77f
7:50pm 9ft 8s 6s 25 31 mph 1015.4mb 77f 77f
6:50pm  -   -   -  25 31 mph 1014.8mb 77f 77f
5:50pm 10ft 8s 6s 25 31 mph 1014mb 77f 77f
4:50pm  -   -   -  25 31 mph 1013.7mb 77f 77f
3:50pm 9ft 7s 6s 27 31 mph 1013.9mb 77f 77f
2:50pm 8.5ft 8s 6s 25 29 mph 1014.2mb 77f 77f
1:50pm 8.5ft 8s 6s 25 29 mph 1014.9mb 77f 77f
12:50pm 8ft 7s 6s 22 27 mph 1015.5mb 77f 77f
11:50am 8ft 7s 6s 22 27 mph 1016.3mb 77f 77f
10:50am  -   -   -  22 27 mph 1016.6mb 77f 77f
9:50am  -   -   -  22 27 mph 1016.7mb 77f 77f
8:50am 7ft 7s 6s 22 27 mph 1016.6mb 77f 77f
7:50am  -   -   -  22 27 mph 1016.5mb 77f 77f
6:50am  -   -   -  22 27 mph 1015.7mb 77f 76f
5:50am 7ft 7s 6s 22 25 mph 1015.2mb 77f 76f
4:50am 7ft 7s 6s 20 25 mph 1014.5mb 77f 76f
3:50am 7ft 15s 6s 20 25 mph 1014.2mb 77f 76f
2:50am  -   -   -  20 25 mph 1014.5mb 77f 76f
1:50am  -   -   -  20 25 mph 1015.2mb 77f 76f
12:50am  -   -   -  22 25 mph 1015.7mb 77f 76f
Sat 04/12 11:50pm  -   -   -  22 27 mph 1016.3mb 77f 76f
10:50pm 7ft 15s 6s 22 25 mph 1016.4mb 77f 76f
9:50pm 6.5ft 16s 6s 22 27 mph 1016.1mb 77f 76f
8:50pm 7ft 15s 6s 22 25 mph 1015.6mb 77f 76f
7:50pm 6ft 15s 6s 22 25 mph 1015.1mb 77f 76f
6:50pm 7ft 15s 6s 20 25 mph 1014.6mb 77f 76f
5:50pm 6ft 16s 6s 20 25 mph 1014.1mb 77f 76f
4:50pm 6.5ft 16s 6s 18 22 mph 1013.6mb 77f 77f
3:50pm  -   -   -  18 22 mph 1013.8mb 78f 77f
2:50pm 6.5ft 16s 6s 20 22 mph 1014mb 78f 76f